createdAt,value
2023-03-15T00:01:27.236Z,3.50
2023-03-15T00:06:33.765Z,3.75
2023-03-15T00:11:39.714Z,4.15
2023-03-15T00:16:43.611Z,3.83
2023-03-15T00:21:47.296Z,3.40
2023-03-15T00:26:52.092Z,3.10
2023-03-15T00:31:55.476Z,4.15
2023-03-15T00:36:59.137Z,4.65
2023-03-15T00:42:03.994Z,4.00
2023-03-15T00:47:07.673Z,3.25
2023-03-15T00:52:12.618Z,3.83
2023-03-15T00:57:17.350Z,2.80
2023-03-15T01:02:22.203Z,2.85
2023-03-15T01:07:25.684Z,2.53
2023-03-15T01:12:34.722Z,2.60
2023-03-15T01:17:38.209Z,2.33
2023-03-15T01:22:41.787Z,2.90
2023-03-15T01:27:46.575Z,3.80
2023-03-15T01:32:50.056Z,2.53
2023-03-15T01:37:53.886Z,2.58
2023-03-15T01:43:15.915Z,2.70
2023-03-15T01:48:20.976Z,3.38
2023-03-15T01:53:26.144Z,2.10
2023-03-15T01:58:31.414Z,1.77
2023-03-15T02:03:38.984Z,2.53
2023-03-15T02:08:46.728Z,1.33
2023-03-15T02:13:52.759Z,2.35
2023-03-15T02:18:56.184Z,1.52
2023-03-15T02:24:07.065Z,2.65
2023-03-15T02:29:12.671Z,1.88
2023-03-15T02:34:16.534Z,2.08
2023-03-15T02:39:21.876Z,1.88
2023-03-15T02:44:30.397Z,1.42
2023-03-15T02:49:38.184Z,2.33
2023-03-15T02:54:43.470Z,2.28
2023-03-15T02:59:50.964Z,2.22
2023-03-15T03:04:54.443Z,1.50
2023-03-15T03:09:57.958Z,1.98
2023-03-15T03:15:05.056Z,2.08
2023-03-15T03:20:10.582Z,1.35
2023-03-15T03:25:14.352Z,1.88
2023-03-15T03:30:19.312Z,1.42
2023-03-15T03:35:22.710Z,1.73
2023-03-15T03:40:26.114Z,1.88
2023-03-15T03:45:31.028Z,1.95
2023-03-15T03:50:34.582Z,2.88
2023-03-15T03:55:39.348Z,2.28
2023-03-15T04:00:44.262Z,1.80
2023-03-15T04:05:47.941Z,1.92
2023-03-15T04:10:52.346Z,1.20
2023-03-15T04:15:58.112Z,1.40
2023-03-15T04:21:01.586Z,2.20
2023-03-15T04:26:06.686Z,1.70
2023-03-15T04:31:14.964Z,1.50
2023-03-15T04:36:19.404Z,1.60
2023-03-15T04:41:27.062Z,1.88
2023-03-15T04:46:32.287Z,2.03
2023-03-15T04:51:35.801Z,1.65
2023-03-15T04:56:39.238Z,2.25
2023-03-15T05:01:44.336Z,2.08
2023-03-15T05:06:47.722Z,1.55
2023-03-15T05:11:51.142Z,2.85
2023-03-15T05:16:58.747Z,2.00
2023-03-15T05:22:02.201Z,3.28
2023-03-15T05:27:05.648Z,1.80
2023-03-15T05:32:10.918Z,2.28
2023-03-15T05:37:14.356Z,2.55
2023-03-15T05:42:22.089Z,1.95
2023-03-15T05:47:26.986Z,2.25
2023-03-15T05:52:30.358Z,2.08
2023-03-15T05:57:33.750Z,2.17
2023-03-15T06:02:38.735Z,2.80
2023-03-15T06:07:42.456Z,1.95
2023-03-15T06:12:45.802Z,2.72
2023-03-15T06:17:50.615Z,2.10
2023-03-15T06:22:54.296Z,2.35
2023-03-15T06:27:57.963Z,2.65
2023-03-15T06:33:03.097Z,2.33
2023-03-15T06:38:06.884Z,1.75
2023-03-15T06:43:14.179Z,1.90
2023-03-15T06:48:18.899Z,3.03
2023-03-15T06:53:22.545Z,3.10
2023-03-15T06:58:26.291Z,2.03
2023-03-15T07:03:31.273Z,2.20
2023-03-15T07:08:34.917Z,1.17
2023-03-15T07:13:38.564Z,3.05
2023-03-15T07:18:43.806Z,1.75
2023-03-15T07:23:47.454Z,3.10
2023-03-15T07:28:50.913Z,2.05
2023-03-15T07:33:55.650Z,1.70
2023-03-15T07:38:59.033Z,2.10
2023-03-15T07:44:02.484Z,2.45
2023-03-15T07:49:07.271Z,2.70
2023-03-15T07:54:11.270Z,2.60
2023-03-15T07:59:15.577Z,2.88
2023-03-15T08:04:20.288Z,2.08
2023-03-15T08:09:25.002Z,2.17
2023-03-15T08:14:29.233Z,1.60
2023-03-15T08:19:34.453Z,2.28
2023-03-15T08:24:37.918Z,2.10
2023-03-15T08:29:41.615Z,1.88
2023-03-15T08:34:46.770Z,2.42
2023-03-15T08:39:50.128Z,2.72
2023-03-15T08:44:53.517Z,1.67
2023-03-15T08:49:58.524Z,2.60
2023-03-15T08:55:02.205Z,2.65
2023-03-15T09:00:09.296Z,1.77
2023-03-15T09:05:14.168Z,1.75
2023-03-15T09:10:18.774Z,2.53
2023-03-15T09:15:22.222Z,1.67
2023-03-15T09:20:28.530Z,3.00
2023-03-15T09:25:31.903Z,3.78
2023-03-15T09:30:36.353Z,2.15
2023-03-15T09:35:41.252Z,2.20
2023-03-15T09:40:46.201Z,2.25
2023-03-15T09:46:02.041Z,2.35
2023-03-15T09:51:13.310Z,1.40
2023-03-15T09:56:24.362Z,1.73
2023-03-15T10:01:32.715Z,2.03
2023-03-15T10:06:46.240Z,2.22
2023-03-15T10:12:00.240Z,2.25
2023-03-15T10:17:08.634Z,2.85
2023-03-15T10:22:23.059Z,1.98
2023-03-15T10:27:32.036Z,2.08
2023-03-15T10:32:39.952Z,1.33
2023-03-15T10:37:45.561Z,1.70
2023-03-15T10:42:49.203Z,2.80
2023-03-15T10:48:00.474Z,2.00
2023-03-15T10:53:11.490Z,2.13
2023-03-15T10:58:25.764Z,1.50
2023-03-15T11:03:29.896Z,1.67
2023-03-15T11:08:42.767Z,1.23
2023-03-15T11:14:00.592Z,1.70
2023-03-15T11:19:06.681Z,1.20
2023-03-15T11:24:23.924Z,1.38
2023-03-15T11:29:30.037Z,1.50
2023-03-15T11:34:42.062Z,1.20
2023-03-15T11:40:05.091Z,1.70
2023-03-15T11:45:17.750Z,1.30
2023-03-15T11:50:21.683Z,0.90
2023-03-15T11:55:29.156Z,1.95
2023-03-15T12:00:51.260Z,1.77
2023-03-15T12:06:02.276Z,2.17
2023-03-15T12:11:12.747Z,2.95
2023-03-15T12:16:16.385Z,1.50
2023-03-15T12:21:23.335Z,1.95
2023-03-15T12:26:35.415Z,1.33
2023-03-15T12:31:54.546Z,1.27
2023-03-15T12:37:01.678Z,1.30
2023-03-15T12:42:07.131Z,1.45
2023-03-15T12:47:11.718Z,1.00
2023-03-15T12:52:34.904Z,2.55
2023-03-15T12:57:47.595Z,1.43
2023-03-15T13:02:54.255Z,1.42
2023-03-15T13:08:08.810Z,1.48
2023-03-15T13:13:28.309Z,1.10
2023-03-15T13:18:35.168Z,1.55
2023-03-15T13:23:39.148Z,1.45
2023-03-15T13:28:49.541Z,1.35
2023-03-15T13:33:57.259Z,1.67
2023-03-15T13:39:00.601Z,1.98
2023-03-15T13:44:15.311Z,1.20
2023-03-15T13:49:19.981Z,1.50
2023-03-15T13:54:28.284Z,1.13
2023-03-15T13:59:37.404Z,1.27
2023-03-15T14:04:41.755Z,1.65
2023-03-15T14:09:45.479Z,1.73
2023-03-15T14:14:53.133Z,1.73
2023-03-15T14:20:06.824Z,1.95
2023-03-15T14:25:22.186Z,2.20
2023-03-15T14:30:27.165Z,2.00
2023-03-15T14:35:32.431Z,2.92
2023-03-15T14:40:38.679Z,2.45
2023-03-15T14:45:45.441Z,1.90
2023-03-15T14:50:49.391Z,2.17
2023-03-15T14:55:53.093Z,1.83
2023-03-15T15:00:58.971Z,3.08
2023-03-15T15:06:03.748Z,1.90
2023-03-15T15:11:08.629Z,2.25
2023-03-15T15:16:13.502Z,2.00
2023-03-15T15:21:22.663Z,3.08
2023-03-15T15:26:28.120Z,3.00
2023-03-15T15:31:34.962Z,2.92
2023-03-15T15:36:42.005Z,2.25
2023-03-15T15:41:45.428Z,2.10
2023-03-15T15:46:50.579Z,1.98
2023-03-15T15:51:54.197Z,1.58
2023-03-15T15:56:59.768Z,1.92
2023-03-15T16:02:05.172Z,2.10
2023-03-15T16:07:11.257Z,2.03
2023-03-15T16:12:16.509Z,2.60
2023-03-15T16:17:23.052Z,2.17
2023-03-15T16:22:27.169Z,2.25
2023-03-15T16:27:31.371Z,2.42
2023-03-15T16:32:44.379Z,2.45
2023-03-15T16:37:48.409Z,2.17
2023-03-15T16:42:51.859Z,2.38
2023-03-15T16:47:56.996Z,2.42
2023-03-15T16:53:03.243Z,3.28
2023-03-15T16:58:17.512Z,3.10
2023-03-15T17:03:22.390Z,3.67
2023-03-15T17:08:26.351Z,3.55
2023-03-15T17:13:31.884Z,3.92
2023-03-15T17:18:37.075Z,4.00
2023-03-15T17:23:41.046Z,4.05
2023-03-15T17:28:46.482Z,4.15
2023-03-15T17:33:52.322Z,4.60
2023-03-15T17:38:56.285Z,4.45
2023-03-15T17:44:00.227Z,5.15
2023-03-15T17:49:07.068Z,5.13
2023-03-15T17:54:14.747Z,5.30
2023-03-15T17:59:18.716Z,4.43
2023-03-15T18:04:23.582Z,4.43
2023-03-15T18:09:27.280Z,5.38
2023-03-15T18:14:31.472Z,5.32
2023-03-15T18:19:36.254Z,5.60
2023-03-15T18:24:39.693Z,7.00
2023-03-15T18:29:43.156Z,6.78
2023-03-15T18:34:47.888Z,6.13
2023-03-15T18:39:51.326Z,7.53
2023-03-15T18:44:54.729Z,8.35
2023-03-15T18:50:09.826Z,7.45
2023-03-15T18:55:15.974Z,10.50
2023-03-15T19:00:26.381Z,9.73
2023-03-15T19:05:34.189Z,11.77
2023-03-15T19:10:37.636Z,13.02
2023-03-15T19:15:41.046Z,14.20
2023-03-15T19:20:47.263Z,11.55
2023-03-15T19:25:51.065Z,13.68
2023-03-15T19:30:54.848Z,11.38
2023-03-15T19:36:00.096Z,14.63
2023-03-15T19:41:04.709Z,12.85
2023-03-15T19:46:08.209Z,12.73
2023-03-15T19:51:13.101Z,11.70
2023-03-15T19:56:17.018Z,11.35
2023-03-15T20:01:20.773Z,13.20
2023-03-15T20:06:25.602Z,12.93
2023-03-15T20:11:29.422Z,14.85
2023-03-15T20:16:33.193Z,14.23
2023-03-15T20:21:38.053Z,13.85
2023-03-15T20:26:41.557Z,14.48
2023-03-15T20:31:45.520Z,14.75
2023-03-15T20:36:52.834Z,14.20
2023-03-15T20:41:56.249Z,14.32
2023-03-15T20:46:59.981Z,14.60
2023-03-15T20:52:05.207Z,15.05
2023-03-15T20:57:08.619Z,15.15
2023-03-15T21:02:12.371Z,17.27
2023-03-15T21:07:17.218Z,17.73
2023-03-15T21:12:21.004Z,17.90
2023-03-15T21:17:24.698Z,18.33
2023-03-15T21:22:29.513Z,16.95
2023-03-15T21:27:33.904Z,15.27
2023-03-15T21:32:38.390Z,15.75
2023-03-15T21:37:43.256Z,16.27
2023-03-15T21:42:47.950Z,18.13
2023-03-15T21:47:52.692Z,16.90
2023-03-15T21:52:57.812Z,16.88
2023-03-15T21:58:01.942Z,15.13
2023-03-15T22:03:05.694Z,15.32
2023-03-15T22:08:10.952Z,13.40
2023-03-15T22:13:14.336Z,15.00
2023-03-15T22:18:17.768Z,14.63
2023-03-15T22:23:22.764Z,14.52
2023-03-15T22:28:26.440Z,15.25
2023-03-15T22:33:29.831Z,15.13
2023-03-15T22:38:38.015Z,13.68
2023-03-15T22:43:41.399Z,14.93
2023-03-15T22:48:44.759Z,16.35
2023-03-15T22:53:49.663Z,16.75
2023-03-15T22:58:55.561Z,17.38
2023-03-15T23:03:59.224Z,15.70
2023-03-15T23:09:06.517Z,17.15
2023-03-15T23:14:10.149Z,16.63
2023-03-15T23:19:15.029Z,20.05
2023-03-15T23:24:19.887Z,19.67
2023-03-15T23:29:23.596Z,21.50
2023-03-15T23:34:27.520Z,20.10
2023-03-15T23:39:32.286Z,18.92
2023-03-15T23:44:36.070Z,18.73
2023-03-15T23:49:39.561Z,18.77
2023-03-15T23:54:44.817Z,17.83
2023-03-15T23:59:49.832Z,17.45
